createdAt,value
2022-08-07T00:02:40.417Z,64.33
2022-08-07T00:04:56.312Z,64.28
2022-08-07T00:07:23.417Z,63.89
2022-08-07T00:10:19.148Z,63.70
2022-08-07T00:13:00.776Z,63.72
2022-08-07T00:15:35.879Z,63.64
2022-08-07T00:18:09.073Z,63.66
2022-08-07T00:20:49.761Z,63.74
2022-08-07T00:23:21.409Z,64.13
2022-08-07T00:25:52.474Z,64.35
2022-08-07T00:28:33.619Z,64.68
2022-08-07T00:31:12.723Z,65.33
2022-08-07T00:33:47.669Z,65.75
2022-08-07T00:36:18.057Z,65.91
2022-08-07T00:38:45.494Z,66.42
2022-08-07T00:41:15.078Z,66.41
2022-08-07T00:44:00.726Z,67.16
2022-08-07T00:46:32.938Z,67.29
2022-08-07T00:49:03.372Z,67.50
2022-08-07T00:51:57.753Z,67.51
2022-08-07T00:54:21.224Z,67.82
2022-08-07T00:56:51.288Z,67.95
2022-08-07T00:59:20.329Z,68.23
2022-08-07T01:02:14.014Z,68.18
2022-08-07T01:04:54.311Z,68.96
2022-08-07T01:07:30.856Z,68.95
2022-08-07T01:10:06.171Z,68.70
2022-08-07T01:19:01.418Z,69.49
2022-08-07T01:21:33.345Z,68.95
2022-08-07T01:24:05.341Z,68.93
2022-08-07T01:26:33.810Z,69.07
2022-08-07T01:29:01.837Z,68.76
2022-08-07T01:31:42.872Z,68.34
2022-08-07T01:48:19.024Z,68.09
2022-08-07T01:51:24.748Z,68.57
2022-08-07T02:03:50.436Z,69.45
2022-08-07T02:06:31.396Z,69.61
2022-08-07T02:09:11.671Z,68.89
2022-08-07T02:12:04.667Z,69.26
2022-08-07T02:14:40.713Z,68.49
2022-08-07T02:17:24.682Z,67.42
2022-08-07T02:36:30.418Z,67.92
2022-08-07T02:38:50.923Z,68.01
2022-08-07T02:41:33.602Z,67.92
2022-08-07T02:44:05.988Z,67.31
2022-08-07T02:46:36.832Z,67.48
2022-08-07T02:49:05.819Z,68.29
2022-08-07T02:51:42.557Z,68.35
2022-08-07T02:54:20.503Z,68.11
2022-08-07T02:56:55.646Z,68.59
2022-08-07T02:59:27.505Z,68.38
2022-08-07T03:02:02.215Z,67.65
2022-08-07T03:04:31.270Z,67.41
2022-08-07T03:07:07.075Z,67.10
2022-08-07T03:09:43.850Z,67.04
2022-08-07T03:12:21.823Z,67.43
2022-08-07T03:14:56.451Z,68.58
2022-08-07T03:17:24.291Z,68.83
2022-08-07T03:19:55.527Z,68.49
2022-08-07T03:22:30.245Z,68.44
2022-08-07T03:25:00.940Z,69.27
2022-08-07T03:27:59.383Z,68.97
2022-08-07T03:30:25.065Z,69.19
2022-08-07T03:32:58.593Z,68.66
2022-08-07T03:35:44.087Z,68.42
2022-08-07T03:38:21.221Z,68.08
2022-08-07T03:40:57.619Z,67.98
2022-08-07T03:43:32.912Z,67.96
2022-08-07T03:46:03.401Z,67.78
2022-08-07T03:48:34.105Z,67.72
2022-08-07T03:51:13.829Z,67.37
2022-08-07T03:54:32.742Z,67.28
2022-08-07T03:56:34.389Z,67.08
2022-08-07T03:59:09.365Z,66.28
2022-08-07T04:01:43.171Z,65.82
2022-08-07T04:04:17.726Z,64.75
2022-08-07T04:06:50.850Z,65.25
2022-08-07T04:09:23.462Z,65.38
2022-08-07T04:12:24.069Z,64.17
2022-08-07T04:14:46.196Z,64.52
2022-08-07T04:17:21.282Z,64.14
2022-08-07T04:20:09.405Z,64.44
2022-08-07T04:22:38.921Z,63.90
2022-08-07T04:25:23.593Z,63.09
2022-08-07T04:27:59.167Z,61.60
2022-08-07T04:30:39.613Z,61.49
2022-08-07T04:33:25.404Z,60.06
2022-08-07T04:35:54.400Z,60.00
2022-08-07T04:38:28.015Z,59.18
2022-08-07T04:40:57.654Z,58.76
2022-08-07T04:44:10.216Z,58.21
2022-08-07T04:46:59.705Z,56.27
2022-08-07T04:50:03.557Z,55.21
2022-08-07T04:53:05.145Z,55.27
2022-08-07T04:58:09.706Z,54.81
2022-08-07T04:59:09.189Z,54.36
2022-08-07T05:01:36.695Z,54.12
2022-08-07T05:04:12.496Z,53.24
2022-08-07T05:06:51.595Z,53.48
2022-08-07T05:10:06.209Z,52.92
2022-08-07T05:12:52.787Z,52.48
2022-08-07T05:15:36.474Z,51.61
2022-08-07T05:18:10.564Z,48.83
2022-08-07T05:20:47.518Z,48.41
2022-08-07T05:23:48.073Z,48.21
2022-08-07T05:26:24.211Z,47.61
2022-08-07T05:29:04.351Z,48.10
2022-08-07T05:31:38.690Z,47.33
2022-08-07T05:34:15.712Z,47.76
2022-08-07T05:36:52.912Z,48.13
2022-08-07T05:40:14.033Z,48.11
2022-08-07T05:42:37.019Z,48.12
2022-08-07T05:45:25.692Z,47.88
2022-08-07T05:48:03.864Z,46.70
2022-08-07T05:50:51.629Z,45.66
2022-08-07T05:54:14.106Z,45.27
2022-08-07T05:56:10.169Z,45.53
2022-08-07T05:58:49.278Z,46.02
2022-08-07T06:01:24.899Z,46.00
2022-08-07T06:03:58.947Z,45.09
2022-08-07T06:06:35.786Z,44.03
2022-08-07T06:09:09.144Z,43.09
2022-08-07T06:11:46.756Z,40.96
2022-08-07T06:14:20.921Z,40.88
2022-08-07T06:16:57.751Z,40.84
2022-08-07T06:19:52.334Z,40.96
2022-08-07T06:22:23.892Z,42.52
2022-08-07T06:25:10.401Z,42.32
2022-08-07T06:27:59.596Z,42.26
2022-08-07T06:30:35.462Z,42.71
2022-08-07T06:33:09.916Z,42.33
2022-08-07T06:35:47.917Z,43.10
2022-08-07T06:38:32.700Z,43.32
2022-08-07T06:41:09.698Z,44.46
2022-08-07T06:43:46.309Z,45.04
2022-08-07T06:46:31.027Z,45.08
2022-08-07T06:48:59.334Z,44.96
2022-08-07T06:51:35.042Z,44.20
2022-08-07T06:55:30.084Z,44.87
2022-08-07T06:56:59.068Z,44.23
2022-08-07T07:00:12.533Z,42.87
2022-08-07T07:02:53.496Z,40.74
2022-08-07T07:06:05.324Z,40.37
2022-08-07T07:08:06.894Z,39.57
2022-08-07T07:10:37.035Z,38.35
2022-08-07T07:13:43.574Z,39.00
2022-08-07T07:16:20.647Z,37.11
2022-08-07T07:18:59.648Z,35.54
2022-08-07T07:22:04.174Z,35.78
2022-08-07T07:24:27.019Z,35.70
2022-08-07T07:26:56.908Z,34.09
2022-08-07T07:29:55.912Z,33.77
2022-08-07T07:32:17.560Z,33.27
2022-08-07T07:34:48.578Z,33.81
2022-08-07T07:37:44.488Z,33.78
2022-08-07T07:40:10.349Z,31.36
2022-08-07T07:42:51.121Z,30.00
2022-08-07T07:46:37.201Z,31.09
2022-08-07T07:48:35.286Z,31.01
2022-08-07T07:51:07.708Z,31.53
2022-08-07T07:53:51.320Z,30.71
2022-08-07T07:56:30.458Z,31.82
2022-08-07T07:59:02.956Z,30.37
2022-08-07T08:02:02.430Z,30.45
2022-08-07T08:04:25.782Z,30.21
2022-08-07T08:06:56.294Z,30.60
2022-08-07T08:09:29.848Z,30.07
2022-08-07T08:12:02.622Z,27.94
2022-08-07T08:14:34.377Z,28.93
2022-08-07T08:17:55.731Z,29.21
2022-08-07T08:20:22.979Z,30.70
2022-08-07T08:23:14.384Z,29.31
2022-08-07T08:26:07.050Z,30.35
2022-08-07T08:28:43.413Z,28.73
2022-08-07T08:31:22.822Z,28.47
2022-08-07T08:33:59.194Z,27.21
2022-08-07T08:36:32.823Z,28.44
2022-08-07T08:39:04.176Z,28.30
2022-08-07T08:42:03.905Z,28.43
2022-08-07T08:44:44.743Z,28.43
2022-08-07T08:47:52.261Z,28.82
2022-08-07T08:50:39.289Z,28.12
2022-08-07T08:53:22.769Z,27.57
2022-08-07T08:56:05.101Z,28.60
2022-08-07T08:58:54.479Z,28.51
2022-08-07T09:01:44.206Z,28.58
2022-08-07T09:04:45.466Z,29.13
2022-08-07T09:07:46.389Z,29.01
2022-08-07T09:10:44.250Z,29.38
2022-08-07T09:13:38.323Z,29.22
2022-08-07T09:16:41.353Z,28.79
2022-08-07T09:19:53.387Z,27.99
2022-08-07T09:24:53.720Z,27.85
2022-08-07T09:25:53.969Z,28.59
2022-08-07T09:30:05.876Z,29.11
2022-08-07T09:31:48.412Z,28.70
2022-08-07T09:34:44.196Z,28.49
2022-08-07T09:37:33.331Z,28.68
2022-08-07T09:40:31.688Z,27.73
2022-08-07T09:43:14.660Z,27.22
2022-08-07T09:47:49.577Z,26.85
2022-08-07T09:50:02.859Z,27.01
2022-08-07T09:52:15.459Z,24.47
2022-08-07T09:54:59.495Z,24.73
2022-08-07T09:57:46.495Z,25.21
2022-08-07T10:00:24.406Z,24.41
2022-08-07T10:04:05.432Z,25.12
2022-08-07T10:06:42.785Z,26.82
2022-08-07T10:10:00.271Z,28.26
2022-08-07T10:12:52.696Z,28.99
2022-08-07T10:15:26.478Z,29.08
2022-08-07T10:18:03.235Z,28.04
2022-08-07T10:20:54.620Z,27.37
2022-08-07T10:24:05.621Z,27.14
2022-08-07T10:26:53.218Z,27.25
2022-08-07T10:29:30.207Z,26.26
2022-08-07T10:32:52.607Z,27.05
2022-08-07T10:35:25.526Z,28.98
2022-08-07T10:38:35.268Z,28.24
2022-08-07T10:41:54.724Z,27.50
2022-08-07T10:44:51.384Z,26.14
2022-08-07T10:47:53.606Z,25.59
2022-08-07T10:50:32.467Z,25.96
2022-08-07T10:53:25.064Z,25.69
2022-08-07T10:56:04.899Z,25.38
2022-08-07T10:59:01.475Z,26.12
2022-08-07T11:01:35.514Z,24.62
2022-08-07T11:04:37.819Z,24.20
2022-08-07T11:07:56.296Z,24.05
2022-08-07T11:10:10.127Z,22.54
2022-08-07T11:13:02.044Z,22.49
2022-08-07T11:15:34.670Z,22.03
2022-08-07T11:18:29.993Z,22.17
2022-08-07T11:21:07.875Z,22.28
2022-08-07T11:23:50.333Z,22.12
2022-08-07T11:26:49.931Z,22.71
2022-08-07T11:29:43.555Z,23.40
2022-08-07T11:32:37.161Z,22.57
2022-08-07T11:35:12.239Z,23.43
2022-08-07T11:37:58.372Z,22.39
2022-08-07T11:40:58.742Z,21.37
2022-08-07T11:43:54.722Z,21.21
2022-08-07T11:46:38.955Z,19.97
2022-08-07T11:49:51.370Z,20.59
2022-08-07T11:52:35.787Z,21.18
2022-08-07T11:56:09.718Z,20.47
2022-08-07T11:59:05.362Z,19.95
2022-08-07T12:02:30.795Z,19.90
2022-08-07T12:05:41.163Z,20.42
2022-08-07T12:08:11.503Z,20.78
2022-08-07T12:11:08.303Z,20.60
2022-08-07T12:14:01.920Z,21.01
2022-08-07T12:19:56.494Z,20.32
2022-08-07T12:45:31.980Z,23.41
2022-08-07T12:48:53.091Z,24.43
2022-08-07T12:51:51.123Z,24.07
2022-08-07T12:58:00.769Z,31.26
2022-08-07T13:04:44.112Z,35.83
2022-08-07T13:11:16.157Z,35.73
2022-08-07T13:14:07.900Z,35.85
2022-08-07T13:16:50.883Z,36.29
2022-08-07T13:19:51.119Z,37.63
2022-08-07T13:22:31.171Z,38.75
2022-08-07T13:25:09.304Z,39.14
2022-08-07T13:28:10.861Z,39.24
2022-08-07T13:30:41.023Z,38.59
2022-08-07T13:34:30.565Z,37.85
2022-08-07T13:36:41.519Z,39.11
2022-08-07T13:39:11.184Z,39.41
2022-08-07T13:41:49.818Z,39.82
2022-08-07T13:44:34.528Z,40.14
2022-08-07T13:47:09.513Z,40.65
2022-08-07T13:50:33.660Z,41.18
2022-08-07T13:52:40.766Z,42.14
2022-08-07T13:55:25.538Z,42.35
2022-08-07T13:58:28.180Z,43.17
2022-08-07T14:01:33.262Z,43.62
2022-08-07T14:04:18.970Z,43.90
2022-08-07T14:06:50.824Z,44.17
2022-08-07T14:10:02.333Z,44.55
2022-08-07T14:13:00.608Z,45.08
2022-08-07T14:15:43.571Z,46.28
2022-08-07T14:18:28.977Z,45.48
2022-08-07T14:22:01.420Z,45.51
2022-08-07T14:24:33.255Z,45.57
2022-08-07T14:28:09.631Z,45.92
2022-08-07T14:30:05.520Z,46.33
2022-08-07T14:32:47.980Z,46.21
2022-08-07T14:35:45.212Z,47.42
2022-08-07T14:38:26.121Z,47.95
2022-08-07T14:41:05.329Z,48.69
2022-08-07T14:43:59.470Z,48.65
2022-08-07T14:46:31.060Z,48.61
2022-08-07T14:52:03.639Z,48.00
2022-08-07T14:54:41.803Z,47.71
2022-08-07T14:57:19.594Z,47.98
2022-08-07T15:00:07.005Z,48.51
2022-08-07T15:02:39.081Z,48.52
2022-08-07T15:05:20.482Z,48.48
2022-08-07T15:07:52.598Z,48.42
2022-08-07T15:10:27.596Z,48.53
2022-08-07T15:13:11.604Z,48.80
2022-08-07T15:15:42.968Z,49.00
2022-08-07T15:18:34.087Z,48.84
2022-08-07T15:27:11.384Z,49.44
2022-08-07T15:30:09.322Z,49.50
2022-08-07T15:32:39.622Z,51.98
2022-08-07T15:35:13.051Z,52.12
2022-08-07T15:40:35.012Z,53.35
2022-08-07T15:46:52.314Z,54.37
2022-08-07T15:50:04.859Z,54.24
2022-08-07T15:52:39.113Z,53.35
2022-08-07T15:55:18.598Z,54.09
2022-08-07T15:58:01.709Z,54.22
2022-08-07T16:00:46.415Z,54.23
2022-08-07T16:03:46.979Z,54.20
2022-08-07T16:06:36.569Z,54.16
2022-08-07T16:09:12.965Z,54.33
2022-08-07T16:12:12.303Z,54.09
2022-08-07T16:14:55.072Z,54.65
2022-08-07T16:18:02.993Z,53.97
2022-08-07T16:22:01.669Z,53.98
2022-08-07T16:24:38.646Z,54.13
2022-08-07T16:27:39.998Z,53.92
2022-08-07T16:30:30.639Z,53.76
2022-08-07T16:34:02.318Z,53.79
2022-08-07T16:36:20.696Z,53.59
2022-08-07T16:39:02.039Z,53.99
2022-08-07T16:41:41.449Z,54.39
2022-08-07T16:44:46.259Z,54.28
2022-08-07T16:47:50.865Z,53.29
2022-08-07T16:51:13.406Z,53.53
2022-08-07T16:54:19.339Z,54.16
2022-08-07T16:57:15.225Z,54.05
2022-08-07T17:00:15.438Z,54.13
2022-08-07T17:03:47.327Z,54.78
2022-08-07T17:06:29.404Z,53.75
2022-08-07T17:10:07.533Z,53.11
2022-08-07T17:12:33.801Z,52.68
2022-08-07T17:15:16.888Z,53.04
2022-08-07T17:17:47.621Z,52.69
2022-08-07T17:20:31.695Z,52.56
2022-08-07T17:23:17.275Z,52.90
2022-08-07T17:26:06.353Z,53.44
2022-08-07T17:29:09.747Z,54.53
2022-08-07T17:32:31.145Z,54.06
2022-08-07T17:35:55.346Z,54.09
2022-08-07T17:38:36.624Z,54.96
2022-08-07T17:42:02.374Z,54.29
2022-08-07T17:44:49.897Z,53.94
2022-08-07T17:48:02.788Z,54.26
2022-08-07T17:51:01.908Z,53.79
2022-08-07T17:54:29.733Z,53.84
2022-08-07T17:57:59.219Z,53.83
2022-08-07T18:00:32.905Z,53.67
2022-08-07T18:03:09.465Z,53.82
2022-08-07T18:06:03.354Z,53.33
2022-08-07T18:09:01.466Z,53.47
2022-08-07T18:12:16.352Z,53.34
2022-08-07T18:14:45.026Z,53.78
2022-08-07T18:18:44.761Z,53.72
2022-08-07T18:21:07.526Z,54.87
2022-08-07T18:24:02.180Z,55.45
2022-08-07T18:26:41.464Z,56.57
2022-08-07T18:30:05.840Z,57.74
2022-08-07T18:32:05.364Z,57.96
2022-08-07T18:35:00.901Z,58.21
2022-08-07T18:38:56.909Z,58.25
2022-08-07T18:40:53.816Z,57.99
2022-08-07T18:43:42.871Z,57.38
2022-08-07T18:46:33.670Z,57.78
2022-08-07T18:50:35.236Z,57.57
2022-08-07T18:52:37.769Z,57.98
2022-08-07T18:55:40.835Z,60.11
2022-08-07T18:58:32.285Z,62.64
2022-08-07T19:02:17.043Z,63.63
2022-08-07T19:04:14.617Z,64.32
2022-08-07T19:06:51.702Z,65.02
2022-08-07T19:09:56.224Z,65.46
2022-08-07T19:12:30.006Z,65.85
2022-08-07T19:16:05.381Z,65.69
2022-08-07T19:18:34.605Z,64.82
2022-08-07T19:21:51.116Z,63.38
2022-08-07T19:24:36.219Z,63.80
2022-08-07T19:28:29.257Z,64.70
2022-08-07T19:30:58.340Z,63.34
2022-08-07T19:33:13.192Z,63.78
2022-08-07T19:35:57.683Z,62.75
2022-08-07T19:38:29.427Z,62.88
2022-08-07T19:41:03.363Z,63.28
2022-08-07T19:43:43.963Z,63.96
2022-08-07T19:46:26.844Z,63.79
2022-08-07T19:49:04.518Z,62.93
2022-08-07T19:51:51.221Z,63.60
2022-08-07T19:54:34.343Z,63.13
2022-08-07T19:58:01.030Z,62.79
2022-08-07T20:00:28.039Z,63.16
2022-08-07T20:03:03.682Z,63.38
2022-08-07T20:06:01.028Z,63.79
2022-08-07T20:08:24.674Z,63.83
2022-08-07T20:11:10.225Z,64.10
2022-08-07T20:13:47.715Z,63.92
2022-08-07T20:16:36.217Z,63.98
2022-08-07T20:19:10.555Z,64.90
2022-08-07T20:21:47.517Z,64.79
2022-08-07T20:24:20.750Z,64.21
2022-08-07T20:26:52.355Z,63.97
2022-08-07T20:29:49.551Z,63.75
2022-08-07T20:32:39.753Z,64.71
2022-08-07T20:35:26.199Z,64.89
2022-08-07T20:38:01.728Z,65.84
2022-08-07T20:40:37.873Z,66.16
2022-08-07T20:43:19.665Z,64.64
2022-08-07T20:46:26.563Z,62.43
2022-08-07T20:48:57.902Z,59.38
2022-08-07T20:51:31.125Z,57.78
2022-08-07T20:54:12.364Z,55.99
2022-08-07T20:56:46.276Z,56.15
2022-08-07T21:00:04.291Z,56.58
2022-08-07T21:02:35.173Z,55.83
2022-08-07T21:05:16.547Z,57.69
2022-08-07T21:07:49.532Z,58.09
2022-08-07T21:10:29.690Z,57.79
2022-08-07T21:13:02.353Z,61.79
2022-08-07T21:15:58.435Z,61.38
2022-08-07T21:18:33.589Z,59.46
2022-08-07T21:21:06.616Z,59.54
2022-08-07T21:23:49.403Z,59.90
2022-08-07T21:26:25.037Z,61.55
2022-08-07T21:29:30.759Z,63.80
2022-08-07T21:32:46.645Z,65.42
2022-08-07T21:35:34.758Z,65.97
2022-08-07T21:38:27.866Z,66.61
2022-08-07T21:41:37.897Z,65.94
2022-08-07T21:44:28.278Z,66.11
2022-08-07T21:47:19.666Z,68.87
2022-08-07T21:50:02.633Z,65.83
2022-08-07T21:52:55.095Z,67.65
2022-08-07T21:55:30.279Z,70.81
2022-08-07T21:58:32.168Z,74.01
2022-08-07T22:01:13.643Z,75.15
2022-08-07T22:04:00.834Z,78.32
2022-08-07T22:06:45.908Z,80.84
2022-08-07T22:09:25.474Z,82.76
2022-08-07T22:12:07.173Z,82.92
2022-08-07T22:15:00.513Z,82.11
2022-08-07T22:17:35.927Z,82.10
2022-08-07T22:20:06.937Z,82.24
2022-08-07T22:22:39.994Z,80.58
2022-08-07T22:25:36.265Z,78.35
2022-08-07T22:28:30.175Z,79.19
2022-08-07T22:31:04.903Z,78.16
2022-08-07T22:33:56.593Z,76.09
2022-08-07T22:36:34.529Z,76.30
2022-08-07T22:39:16.911Z,74.70
2022-08-07T22:42:03.045Z,74.10
2022-08-07T22:44:57.889Z,74.28
2022-08-07T22:47:41.320Z,74.51
2022-08-07T22:50:50.164Z,75.46
2022-08-07T22:54:05.649Z,75.38
2022-08-07T22:56:18.956Z,75.83
2022-08-07T22:59:05.070Z,77.45
2022-08-07T23:01:53.686Z,76.35
2022-08-07T23:04:56.958Z,74.80
2022-08-07T23:07:44.935Z,73.94
2022-08-07T23:10:38.312Z,72.20
2022-08-07T23:13:20.469Z,71.40
2022-08-07T23:16:44.668Z,72.71
2022-08-07T23:19:51.195Z,72.69
2022-08-07T23:22:45.290Z,72.66
2022-08-07T23:25:29.376Z,73.11
2022-08-07T23:28:21.611Z,72.87
2022-08-07T23:32:48.960Z,73.72
2022-08-07T23:34:41.277Z,73.67
2022-08-07T23:37:30.461Z,73.93
2022-08-07T23:40:04.294Z,73.88
2022-08-07T23:42:56.232Z,73.28
2022-08-07T23:46:01.694Z,72.35
2022-08-07T23:48:51.370Z,72.05
2022-08-07T23:53:01.819Z,70.18
2022-08-07T23:54:44.297Z,69.45
2022-08-07T23:57:30.050Z,68.10
